Time;durP1;ratioP1;P1;durP2;ratioP2;P2;SDS_P1;SDS_P2;PMS_P1;PMS_P2;Temp;Humidity;BMP_temperature;BMP_pressure;BME280_temperature;BME280_humidity;BME280_pressure;Samples;Min_cycle;Max_cycle;Signal;HPM_P1;HPM_P2
2023/09/30 00:01:46;;;;;;;15.90;4.63;;;;;;;;;;5053451;28;20453;-75
2023/09/30 00:04:12;;;;;;;19.83;4.88;;;;;;;;;;5051697;28;20621;-77
2023/09/30 00:06:38;;;;;;;21.45;5.15;;;;;;;;;;5054036;28;20045;-75
2023/09/30 00:09:05;;;;;;;19.92;4.65;;;;;;;;;;5052453;28;20091;-75
2023/09/30 00:11:31;;;;;;;19.58;4.30;;;;;;;;;;5051535;28;20052;-75
2023/09/30 00:13:58;;;;;;;19.67;4.70;;;;;;;;;;5050833;28;20086;-75
2023/09/30 00:16:24;;;;;;;16.98;4.47;;;;;;;;;;5048289;28;20053;-75
2023/09/30 00:18:50;;;;;;;18.92;4.28;;;;;;;;;;5051786;28;20051;-75
2023/09/30 00:21:17;;;;;;;19.23;4.50;;;;;;;;;;5052708;28;20091;-75
2023/09/30 00:23:43;;;;;;;14.82;4.32;;;;;;;;;;5052678;28;20045;-75
2023/09/30 00:26:09;;;;;;;20.85;4.60;;;;;;;;;;5050815;28;20044;-75
2023/09/30 00:28:35;;;;;;;18.75;4.65;;;;;;;;;;5051983;28;20052;-75
2023/09/30 00:31:01;;;;;;;21.77;4.90;;;;;;;;;;5071931;28;20045;-75
2023/09/30 00:33:27;;;;;;;17.83;4.55;;;;;;;;;;5055355;28;20049;-75
2023/09/30 00:35:53;;;;;;;16.25;4.55;;;;;;;;;;5050873;28;20499;-77
2023/09/30 00:38:19;;;;;;;20.42;4.32;;;;;;;;;;5052272;28;20040;-75
2023/09/30 00:40:49;;;;;;;19.10;5.15;;;;;;;;;;5053758;28;20098;-75
2023/09/30 00:43:21;;;;;;;22.67;5.38;;;;;;;;;;5053013;28;20040;-74
2023/09/30 00:46:07;;;;;;;19.05;4.63;;;;;;;;;;5051150;28;20548;-75
2023/09/30 00:48:34;;;;;;;20.77;5.32;;;;;;;;;;5051460;28;20037;-75
2023/09/30 00:51:00;;;;;;;19.58;4.70;;;;;;;;;;5053669;28;20406;-75
2023/09/30 00:53:26;;;;;;;20.02;5.03;;;;;;;;;;5050391;28;20110;-74
2023/09/30 00:55:53;;;;;;;23.80;5.25;;;;;;;;;;5053581;28;20049;-75
2023/09/30 00:58:19;;;;;;;16.55;5.03;;;;;;;;;;5051397;28;20048;-75
2023/09/30 01:00:45;;;;;;;21.23;5.72;;;;;;;;;;5052177;28;20068;-74
2023/09/30 01:03:11;;;;;;;19.55;5.50;;;;;;;;;;5052755;28;20052;-75
2023/09/30 01:05:37;;;;;;;19.92;5.75;;;;;;;;;;5049880;28;20443;-75
2023/09/30 01:08:04;;;;;;;22.80;5.53;;;;;;;;;;5050493;28;20037;-75
2023/09/30 01:10:30;;;;;;;21.48;6.18;;;;;;;;;;5051522;28;20044;-75
2023/09/30 01:12:56;;;;;;;21.42;6.18;;;;;;;;;;5050905;28;20047;-75
2023/09/30 01:15:23;;;;;;;18.63;6.40;;;;;;;;;;5050556;28;20507;-75
2023/09/30 01:17:49;;;;;;;20.10;5.82;;;;;;;;;;5048929;28;20142;-75
2023/09/30 01:20:16;;;;;;;21.83;5.82;;;;;;;;;;5052090;28;20107;-75
2023/09/30 01:22:45;;;;;;;20.38;6.50;;;;;;;;;;5050570;28;20052;-75
2023/09/30 01:25:11;;;;;;;18.95;6.40;;;;;;;;;;5052953;28;20037;-75
2023/09/30 01:27:37;;;;;;;18.77;6.20;;;;;;;;;;5052049;28;20079;-75
2023/09/30 01:30:03;;;;;;;20.48;5.38;;;;;;;;;;5052343;28;20041;-75
2023/09/30 01:32:30;;;;;;;18.67;5.30;;;;;;;;;;5051810;28;20053;-75
2023/09/30 01:34:56;;;;;;;17.65;5.38;;;;;;;;;;5048155;28;20103;-75
2023/09/30 01:37:22;;;;;;;21.08;6.18;;;;;;;;;;5050895;28;20052;-75
2023/09/30 01:39:50;;;;;;;17.08;5.32;;;;;;;;;;5049772;28;20434;-75
2023/09/30 01:42:16;;;;;;;19.77;5.38;;;;;;;;;;5052023;28;20080;-75
2023/09/30 01:44:42;;;;;;;18.85;5.93;;;;;;;;;;5050583;28;20071;-75
2023/09/30 01:47:08;;;;;;;21.65;6.20;;;;;;;;;;5050888;28;20049;-75
2023/09/30 01:49:34;;;;;;;22.83;5.80;;;;;;;;;;5046246;28;20051;-75
2023/09/30 01:52:00;;;;;;;17.73;5.18;;;;;;;;;;5066690;28;20052;-75
2023/09/30 01:54:27;;;;;;;18.35;4.97;;;;;;;;;;5052330;28;20045;-75
2023/09/30 01:56:53;;;;;;;19.05;5.63;;;;;;;;;;5050732;28;20051;-75
2023/09/30 01:59:19;;;;;;;19.95;5.32;;;;;;;;;;5050253;28;20094;-75
2023/09/30 02:01:48;;;;;;;18.45;5.28;;;;;;;;;;5051816;28;20068;-75
2023/09/30 02:04:17;;;;;;;19.90;5.18;;;;;;;;;;5050577;28;20041;-75
2023/09/30 02:06:43;;;;;;;18.30;5.32;;;;;;;;;;5052068;28;20083;-75
2023/09/30 02:09:09;;;;;;;20.38;5.22;;;;;;;;;;5051564;28;20064;-75
2023/09/30 02:11:37;;;;;;;20.63;5.05;;;;;;;;;;5051620;28;20045;-75
2023/09/30 02:14:05;;;;;;;19.35;5.00;;;;;;;;;;5050454;28;20079;-75
2023/09/30 02:16:31;;;;;;;18.63;4.57;;;;;;;;;;5050556;28;20096;-75
2023/09/30 02:18:58;;;;;;;16.90;5.10;;;;;;;;;;5050389;28;20041;-75
2023/09/30 02:21:24;;;;;;;20.13;4.90;;;;;;;;;;5049646;28;20079;-75
2023/09/30 02:23:54;;;;;;;13.98;4.93;;;;;;;;;;5050729;28;20582;-75
2023/09/30 02:26:21;;;;;;;19.57;5.00;;;;;;;;;;5050918;28;20053;-75
2023/09/30 02:28:47;;;;;;;18.42;4.55;;;;;;;;;;5049975;28;20479;-75
2023/09/30 02:31:13;;;;;;;18.15;5.40;;;;;;;;;;5050225;28;20052;-75
2023/09/30 02:33:40;;;;;;;19.13;5.00;;;;;;;;;;5051309;28;20403;-75
2023/09/30 02:36:09;;;;;;;20.58;5.40;;;;;;;;;;5050951;28;20096;-75
2023/09/30 02:38:38;;;;;;;18.30;5.50;;;;;;;;;;5051245;28;20040;-75
2023/09/30 02:41:05;;;;;;;17.40;4.80;;;;;;;;;;5051430;28;20040;-75
2023/09/30 02:43:31;;;;;;;18.00;5.15;;;;;;;;;;5051482;28;20522;-75
2023/09/30 02:45:57;;;;;;;21.65;4.80;;;;;;;;;;5050473;28;20098;-75
2023/09/30 02:48:23;;;;;;;18.60;5.25;;;;;;;;;;5049385;28;20049;-75
2023/09/30 02:50:49;;;;;;;18.02;5.13;;;;;;;;;;5050706;28;20049;-75
2023/09/30 02:53:15;;;;;;;17.38;5.40;;;;;;;;;;5048956;28;20067;-74
2023/09/30 02:55:42;;;;;;;19.48;5.68;;;;;;;;;;5050515;28;20048;-75
2023/09/30 02:58:08;;;;;;;19.27;5.35;;;;;;;;;;5052281;28;20045;-75
2023/09/30 03:00:38;;;;;;;25.30;5.22;;;;;;;;;;5055131;28;20041;-75
2023/09/30 03:03:04;;;;;;;28.00;6.55;;;;;;;;;;5054680;28;20053;-75
2023/09/30 03:05:33;;;;;;;20.77;6.10;;;;;;;;;;5055323;28;20041;-75
2023/09/30 03:08:00;;;;;;;18.00;5.40;;;;;;;;;;5053961;28;20037;-75
2023/09/30 03:10:26;;;;;;;19.05;5.57;;;;;;;;;;5052743;28;20048;-75
2023/09/30 03:13:01;;;;;;;18.63;5.60;;;;;;;;;;5041298;28;20048;-75
2023/09/30 03:15:28;;;;;;;22.85;5.93;;;;;;;;;;5052851;28;20053;-75
2023/09/30 03:17:55;;;;;;;22.48;6.28;;;;;;;;;;5054260;28;20048;-75
2023/09/30 03:20:22;;;;;;;18.75;5.82;;;;;;;;;;5052763;28;20057;-75
2023/09/30 03:22:48;;;;;;;22.83;6.00;;;;;;;;;;5054516;28;20040;-75
2023/09/30 03:25:17;;;;;;;20.75;5.68;;;;;;;;;;5055076;28;20502;-75
2023/09/30 03:27:43;;;;;;;20.00;5.97;;;;;;;;;;5054329;28;20419;-75
2023/09/30 03:30:11;;;;;;;19.27;5.60;;;;;;;;;;5054847;28;20041;-75
2023/09/30 03:32:38;;;;;;;22.80;6.40;;;;;;;;;;5054412;28;20049;-75
2023/09/30 03:35:10;;;;;;;16.67;5.72;;;;;;;;;;5054875;28;20045;-75
2023/09/30 03:37:36;;;;;;;22.85;5.88;;;;;;;;;;5053647;28;20049;-75
2023/09/30 03:40:13;;;;;;;21.88;6.45;;;;;;;;;;5053405;28;20069;-75
2023/09/30 03:42:40;;;;;;;24.92;6.32;;;;;;;;;;5051437;28;20098;-75
2023/09/30 03:45:09;;;;;;;18.48;6.13;;;;;;;;;;5053230;28;20052;-77
2023/09/30 03:47:35;;;;;;;18.42;6.55;;;;;;;;;;5054228;28;20044;-75
2023/09/30 03:50:03;;;;;;;17.80;5.78;;;;;;;;;;5055194;28;20056;-75
2023/09/30 03:52:29;;;;;;;20.67;6.05;;;;;;;;;;5053585;28;20052;-75
2023/09/30 03:54:55;;;;;;;17.83;6.13;;;;;;;;;;5053509;28;20491;-75
2023/09/30 03:57:21;;;;;;;17.38;6.20;;;;;;;;;;5053521;28;20048;-75
2023/09/30 03:59:48;;;;;;;15.68;5.95;;;;;;;;;;5054225;28;20049;-75
2023/09/30 04:02:14;;;;;;;18.73;6.45;;;;;;;;;;5054698;28;20495;-75
2023/09/30 04:04:40;;;;;;;16.08;5.93;;;;;;;;;;5053560;28;20059;-74
2023/09/30 04:07:10;;;;;;;14.85;5.45;;;;;;;;;;5053110;28;20060;-74
2023/09/30 04:09:36;;;;;;;17.25;6.05;;;;;;;;;;5047371;28;20064;-75
2023/09/30 04:12:02;;;;;;;18.80;6.53;;;;;;;;;;5052019;28;20087;-75
2023/09/30 04:14:28;;;;;;;13.93;6.05;;;;;;;;;;5052131;28;20553;-75
2023/09/30 04:16:54;;;;;;;17.92;6.25;;;;;;;;;;5050053;28;20060;-75
2023/09/30 04:19:21;;;;;;;18.02;6.40;;;;;;;;;;5051270;28;20040;-74
2023/09/30 04:21:47;;;;;;;19.10;6.25;;;;;;;;;;5053053;28;20083;-75
2023/09/30 04:24:13;;;;;;;18.85;6.40;;;;;;;;;;5050496;28;20078;-75
2023/09/30 04:26:40;;;;;;;16.95;6.00;;;;;;;;;;5052815;28;20060;-75
2023/09/30 04:29:10;;;;;;;15.73;5.88;;;;;;;;;;5053323;28;20522;-76
2023/09/30 04:31:37;;;;;;;23.63;7.47;;;;;;;;;;5052888;28;20067;-75
2023/09/30 04:34:04;;;;;;;18.75;6.35;;;;;;;;;;5051888;28;20045;-75
2023/09/30 04:36:30;;;;;;;16.25;7.10;;;;;;;;;;5053148;28;20044;-75
2023/09/30 04:38:56;;;;;;;20.10;7.03;;;;;;;;;;5052200;28;20053;-75
2023/09/30 04:41:25;;;;;;;14.85;6.28;;;;;;;;;;5052315;28;20045;-75
2023/09/30 04:43:52;;;;;;;20.42;7.38;;;;;;;;;;5050985;28;20044;-75
2023/09/30 04:46:22;;;;;;;18.25;7.20;;;;;;;;;;5052405;28;20132;-75
2023/09/30 04:48:48;;;;;;;22.10;7.10;;;;;;;;;;5052592;28;20053;-75
2023/09/30 04:51:18;;;;;;;19.35;7.38;;;;;;;;;;5051446;28;20491;-75
2023/09/30 04:53:46;;;;;;;19.30;6.80;;;;;;;;;;5044886;28;20128;-75
2023/09/30 04:56:12;;;;;;;22.65;7.65;;;;;;;;;;5051715;28;20629;-74
2023/09/30 04:58:38;;;;;;;19.85;7.45;;;;;;;;;;5052743;28;20123;-75
2023/09/30 05:01:04;;;;;;;22.10;6.93;;;;;;;;;;5053773;28;20063;-75
2023/09/30 05:03:30;;;;;;;19.55;6.30;;;;;;;;;;5053655;28;20395;-74
2023/09/30 05:05:58;;;;;;;21.13;7.22;;;;;;;;;;5051715;28;20048;-74
2023/09/30 05:08:24;;;;;;;21.63;6.97;;;;;;;;;;5052455;28;20491;-74
2023/09/30 05:10:50;;;;;;;21.65;7.32;;;;;;;;;;5054283;28;20480;-74
2023/09/30 05:13:17;;;;;;;24.00;7.53;;;;;;;;;;5051805;28;20049;-74
2023/09/30 05:15:43;;;;;;;17.60;6.88;;;;;;;;;;5052655;28;20048;-74
2023/09/30 05:18:09;;;;;;;19.45;7.18;;;;;;;;;;5051292;28;20044;-74
2023/09/30 05:20:36;;;;;;;24.95;8.23;;;;;;;;;;5052369;28;20049;-74
2023/09/30 05:23:03;;;;;;;22.85;7.72;;;;;;;;;;5046005;28;20045;-74
2023/09/30 05:25:29;;;;;;;24.88;8.02;;;;;;;;;;5051323;28;20049;-74
2023/09/30 05:27:56;;;;;;;18.50;7.13;;;;;;;;;;5052609;28;20040;-74
2023/09/30 05:30:22;;;;;;;15.98;6.97;;;;;;;;;;5051725;28;20498;-74
2023/09/30 05:32:52;;;;;;;20.63;7.60;;;;;;;;;;5050640;28;20514;-74
2023/09/30 05:35:18;;;;;;;19.35;7.50;;;;;;;;;;5050100;28;20060;-75
2023/09/30 05:37:45;;;;;;;20.30;7.50;;;;;;;;;;5051727;28;20491;-74
2023/09/30 05:40:21;;;;;;;22.42;7.97;;;;;;;;;;5050648;28;20059;-74
2023/09/30 05:42:48;;;;;;;17.70;8.07;;;;;;;;;;5051903;28;20049;-74
2023/09/30 05:45:15;;;;;;;20.40;7.47;;;;;;;;;;5051129;28;20048;-74
2023/09/30 05:47:41;;;;;;;19.67;8.27;;;;;;;;;;5049656;28;20527;-74
2023/09/30 05:50:16;;;;;;;20.80;7.93;;;;;;;;;;5034945;28;20085;-74
2023/09/30 05:52:45;;;;;;;20.85;8.27;;;;;;;;;;5050415;28;20082;-74
2023/09/30 05:55:11;;;;;;;22.80;8.43;;;;;;;;;;5051206;28;20045;-75
2023/09/30 05:57:37;;;;;;;18.67;8.20;;;;;;;;;;5051304;28;20495;-74
2023/09/30 06:00:14;;;;;;;17.38;7.63;;;;;;;;;;5051765;28;20045;-75
2023/09/30 06:02:40;;;;;;;18.42;8.45;;;;;;;;;;5050759;28;20070;-75
2023/09/30 06:05:06;;;;;;;18.90;9.07;;;;;;;;;;5051348;28;20056;-74
2023/09/30 06:07:33;;;;;;;18.70;7.93;;;;;;;;;;5051893;28;20052;-75
2023/09/30 06:10:02;;;;;;;20.23;8.43;;;;;;;;;;5037188;28;20045;-74
2023/09/30 06:12:29;;;;;;;25.75;8.90;;;;;;;;;;5047575;28;20137;-74
2023/09/30 06:14:55;;;;;;;19.08;7.78;;;;;;;;;;5051296;28;20056;-76
2023/09/30 06:17:22;;;;;;;17.55;7.93;;;;;;;;;;5050165;28;20048;-75
2023/09/30 06:19:50;;;;;;;18.83;8.00;;;;;;;;;;5048732;28;20056;-75
2023/09/30 06:22:17;;;;;;;20.83;7.95;;;;;;;;;;5050497;28;20049;-75
2023/09/30 06:24:43;;;;;;;20.35;7.93;;;;;;;;;;5051464;28;20048;-75
2023/09/30 06:27:13;;;;;;;17.67;8.40;;;;;;;;;;5051710;28;20503;-75
2023/09/30 06:29:42;;;;;;;15.23;7.70;;;;;;;;;;5048952;28;20040;-75
2023/09/30 06:32:08;;;;;;;19.55;8.45;;;;;;;;;;5051145;28;20195;-75
2023/09/30 06:34:34;;;;;;;20.48;9.52;;;;;;;;;;5053723;28;20045;-75
2023/09/30 06:37:00;;;;;;;17.27;8.57;;;;;;;;;;5049083;28;20491;-75
2023/09/30 06:39:27;;;;;;;23.10;9.07;;;;;;;;;;5053543;28;20094;-75
2023/09/30 06:41:53;;;;;;;16.83;8.18;;;;;;;;;;5053063;28;20045;-76
2023/09/30 06:44:19;;;;;;;17.63;8.20;;;;;;;;;;5054200;28;20037;-74
2023/09/30 06:46:45;;;;;;;16.63;8.57;;;;;;;;;;5055427;28;20470;-74
2023/09/30 06:49:11;;;;;;;17.42;7.82;;;;;;;;;;5053445;28;20055;-74
2023/09/30 06:51:37;;;;;;;18.35;8.05;;;;;;;;;;5050135;28;20041;-74
2023/09/30 06:54:06;;;;;;;18.42;7.63;;;;;;;;;;5052004;28;20381;-74
2023/09/30 06:56:32;;;;;;;20.25;7.90;;;;;;;;;;5054358;28;20056;-74
2023/09/30 06:58:59;;;;;;;17.95;7.50;;;;;;;;;;5051525;28;20048;-74
2023/09/30 07:01:25;;;;;;;20.45;7.53;;;;;;;;;;5053555;28;20052;-74
2023/09/30 07:03:51;;;;;;;16.05;7.55;;;;;;;;;;5055165;28;20044;-74
2023/09/30 07:06:24;;;;;;;18.50;7.43;;;;;;;;;;5055318;28;20152;-74
2023/09/30 07:08:50;;;;;;;16.42;7.50;;;;;;;;;;5053935;28;20048;-73
2023/09/30 07:11:16;;;;;;;16.13;7.32;;;;;;;;;;5054873;28;20059;-72
2023/09/30 07:13:42;;;;;;;12.95;6.90;;;;;;;;;;5053849;28;20051;-73
2023/09/30 07:16:08;;;;;;;18.55;7.95;;;;;;;;;;5052044;28;20127;-73
2023/09/30 07:18:34;;;;;;;14.85;7.15;;;;;;;;;;5054665;28;20047;-74
2023/09/30 07:21:00;;;;;;;17.40;6.95;;;;;;;;;;5053682;28;20041;-73
2023/09/30 07:23:26;;;;;;;18.52;7.20;;;;;;;;;;5054658;28;20495;-73
2023/09/30 07:25:52;;;;;;;16.35;7.55;;;;;;;;;;5054035;28;20055;-74
2023/09/30 07:28:18;;;;;;;14.00;6.78;;;;;;;;;;5054651;28;20133;-73
2023/09/30 07:30:44;;;;;;;13.23;6.90;;;;;;;;;;5052896;28;20487;-73
2023/09/30 07:33:10;;;;;;;13.52;6.68;;;;;;;;;;5053849;28;20114;-73
2023/09/30 07:35:38;;;;;;;16.30;7.05;;;;;;;;;;5054777;28;20064;-73
2023/09/30 07:38:04;;;;;;;11.90;6.07;;;;;;;;;;5054857;28;20041;-73
2023/09/30 07:40:30;;;;;;;19.45;6.70;;;;;;;;;;5047766;28;20045;-73
2023/09/30 07:42:57;;;;;;;14.80;6.57;;;;;;;;;;5054507;28;20052;-73
2023/09/30 07:45:23;;;;;;;15.13;6.53;;;;;;;;;;5049550;28;20491;-73
2023/09/30 07:47:49;;;;;;;14.38;6.90;;;;;;;;;;5051946;28;20048;-73
2023/09/30 07:50:15;;;;;;;17.48;7.28;;;;;;;;;;5051318;28;20073;-73
2023/09/30 07:52:42;;;;;;;13.68;7.13;;;;;;;;;;5053684;28;20045;-73
2023/09/30 07:55:08;;;;;;;13.23;6.85;;;;;;;;;;5051142;28;20075;-74
2023/09/30 07:57:34;;;;;;;20.25;6.60;;;;;;;;;;5054307;28;20045;-73
2023/09/30 08:00:00;;;;;;;13.52;6.85;;;;;;;;;;5054130;28;20040;-73
2023/09/30 08:02:33;;;;;;;15.02;6.82;;;;;;;;;;5066785;28;20041;-73
2023/09/30 08:05:00;;;;;;;16.00;6.75;;;;;;;;;;5052168;28;20053;-73
2023/09/30 08:07:26;;;;;;;13.68;6.45;;;;;;;;;;5054487;28;20116;-72
2023/09/30 08:09:52;;;;;;;16.20;6.65;;;;;;;;;;5052699;28;20388;-73
2023/09/30 08:12:18;;;;;;;13.85;6.22;;;;;;;;;;5042593;28;20048;-74
2023/09/30 08:14:44;;;;;;;14.70;6.10;;;;;;;;;;5052075;28;20045;-74
2023/09/30 08:17:11;;;;;;;15.05;6.00;;;;;;;;;;5053854;28;20045;-74
2023/09/30 08:19:37;;;;;;;21.00;6.45;;;;;;;;;;5052530;28;20040;-73
2023/09/30 08:22:03;;;;;;;11.85;5.65;;;;;;;;;;5053716;28;20601;-75
2023/09/30 08:24:30;;;;;;;14.13;6.43;;;;;;;;;;5053763;28;20411;-74
2023/09/30 08:26:56;;;;;;;17.92;6.45;;;;;;;;;;5053165;28;20525;-74
2023/09/30 08:29:22;;;;;;;15.23;6.20;;;;;;;;;;5050283;28;20519;-73
2023/09/30 08:31:50;;;;;;;13.32;5.40;;;;;;;;;;5051837;28;20051;-73
2023/09/30 08:34:17;;;;;;;13.10;5.90;;;;;;;;;;5052774;28;20077;-76
2023/09/30 08:36:43;;;;;;;16.38;5.80;;;;;;;;;;5053718;28;20053;-75
2023/09/30 08:39:10;;;;;;;16.60;6.13;;;;;;;;;;5052566;28;20071;-73
2023/09/30 08:41:36;;;;;;;12.80;5.55;;;;;;;;;;5047200;28;20041;-72
2023/09/30 08:44:03;;;;;;;15.90;5.78;;;;;;;;;;5049850;28;20152;-73
2023/09/30 08:46:33;;;;;;;14.80;5.68;;;;;;;;;;5052502;28;20511;-74
2023/09/30 08:49:01;;;;;;;16.27;6.05;;;;;;;;;;5051868;28;20060;-72
2023/09/30 08:51:28;;;;;;;16.55;5.90;;;;;;;;;;5052042;28;20045;-74
2023/09/30 08:53:56;;;;;;;15.68;5.90;;;;;;;;;;5033463;28;20045;-74
2023/09/30 08:56:24;;;;;;;17.75;5.32;;;;;;;;;;5045945;28;20076;-74
2023/09/30 08:58:50;;;;;;;17.23;6.70;;;;;;;;;;5050777;28;20051;-74
2023/09/30 09:01:17;;;;;;;15.93;5.68;;;;;;;;;;5053664;28;20045;-74
2023/09/30 09:03:44;;;;;;;14.45;5.82;;;;;;;;;;5053266;28;20049;-74
2023/09/30 09:06:10;;;;;;;12.80;5.55;;;;;;;;;;5034608;28;20056;-74
2023/09/30 09:08:36;;;;;;;15.50;5.70;;;;;;;;;;5033105;28;20057;-75
2023/09/30 09:11:05;;;;;;;15.02;5.82;;;;;;;;;;5037920;28;20036;-74
2023/09/30 09:13:49;;;;;;;13.93;4.80;;;;;;;;;;5042986;28;20053;-73
2023/09/30 09:16:15;;;;;;;14.93;5.30;;;;;;;;;;5042098;28;20499;-72
2023/09/30 09:18:41;;;;;;;14.60;5.65;;;;;;;;;;5046274;28;20037;-73
2023/09/30 09:21:22;;;;;;;12.18;5.18;;;;;;;;;;5049955;28;20052;-75
2023/09/30 09:23:50;;;;;;;12.98;5.20;;;;;;;;;;5044782;28;20044;-73
2023/09/30 09:26:29;;;;;;;13.25;5.43;;;;;;;;;;5050979;28;20053;-73
2023/09/30 09:29:00;;;;;;;14.13;5.78;;;;;;;;;;5049076;28;20049;-73
2023/09/30 09:31:28;;;;;;;13.93;5.55;;;;;;;;;;5048013;28;20057;-72
2023/09/30 09:33:54;;;;;;;14.70;5.28;;;;;;;;;;5050230;28;20106;-72
2023/09/30 09:36:20;;;;;;;13.57;5.30;;;;;;;;;;5047272;28;20356;-74
2023/09/30 09:38:53;;;;;;;13.38;5.57;;;;;;;;;;5050862;28;20498;-73
2023/09/30 09:41:20;;;;;;;14.43;5.97;;;;;;;;;;5051597;28;20048;-74
2023/09/30 09:43:49;;;;;;;14.20;5.43;;;;;;;;;;5051538;28;20103;-73
2023/09/30 09:46:17;;;;;;;13.55;5.68;;;;;;;;;;5050621;28;20068;-73
2023/09/30 09:48:45;;;;;;;13.45;5.68;;;;;;;;;;5053843;28;20047;-74
2023/09/30 09:51:12;;;;;;;13.82;6.35;;;;;;;;;;5050191;28;20053;-73
2023/09/30 09:53:39;;;;;;;14.45;6.22;;;;;;;;;;5051112;28;20089;-74
2023/09/30 09:56:07;;;;;;;13.07;5.72;;;;;;;;;;5050729;28;20041;-74
2023/09/30 09:58:36;;;;;;;15.80;6.05;;;;;;;;;;5049909;28;20471;-72
2023/09/30 10:01:03;;;;;;;13.23;5.78;;;;;;;;;;5049046;28;20148;-73
2023/09/30 10:03:29;;;;;;;13.23;5.40;;;;;;;;;;5042020;28;20053;-76
2023/09/30 10:05:55;;;;;;;15.88;5.28;;;;;;;;;;5050401;28;20076;-74
2023/09/30 10:08:28;;;;;;;13.85;5.50;;;;;;;;;;5052819;28;20414;-74
2023/09/30 10:10:54;;;;;;;12.90;5.10;;;;;;;;;;5056441;28;20041;-74
2023/09/30 10:13:43;;;;;;;13.43;5.18;;;;;;;;;;5054141;28;20044;-74
2023/09/30 10:16:29;;;;;;;14.60;4.47;;;;;;;;;;5045865;28;20049;-73
2023/09/30 10:19:11;;;;;;;13.18;3.50;;;;;;;;;;5043408;28;20041;-73
2023/09/30 10:21:38;;;;;;;13.13;4.13;;;;;;;;;;5055657;28;20055;-73
2023/09/30 10:24:22;;;;;;;13.55;4.70;;;;;;;;;;5049163;28;20503;-74
2023/09/30 10:27:08;;;;;;;12.13;4.25;;;;;;;;;;5055465;28;20086;-73
2023/09/30 10:29:44;;;;;;;12.63;4.72;;;;;;;;;;5052990;28;20118;-72
2023/09/30 10:32:10;;;;;;;16.25;4.28;;;;;;;;;;5052271;28;20049;-73
2023/09/30 10:34:36;;;;;;;15.10;4.32;;;;;;;;;;5047720;28;20102;-72
2023/09/30 10:37:29;;;;;;;13.50;4.38;;;;;;;;;;5041597;28;20056;-74
2023/09/30 10:39:58;;;;;;;12.90;4.03;;;;;;;;;;5053550;28;20056;-73
2023/09/30 10:42:43;;;;;;;10.45;3.63;;;;;;;;;;5054115;28;20407;-73
2023/09/30 10:45:29;;;;;;;13.30;4.10;;;;;;;;;;5051581;28;20041;-73
2023/09/30 10:47:55;;;;;;;11.70;4.10;;;;;;;;;;5054072;28;20406;-74
2023/09/30 10:50:39;;;;;;;10.43;4.57;;;;;;;;;;5049018;28;20053;-74
2023/09/30 10:53:07;;;;;;;12.52;4.68;;;;;;;;;;5054354;28;20132;-74
2023/09/30 10:55:33;;;;;;;14.52;3.90;;;;;;;;;;5039071;28;20045;-75
2023/09/30 10:57:59;;;;;;;11.18;2.55;;;;;;;;;;5050528;28;20048;-71
2023/09/30 11:00:25;;;;;;;10.02;2.47;;;;;;;;;;5051693;28;20048;-77
2023/09/30 11:02:52;;;;;;;11.45;2.40;;;;;;;;;;5044769;28;20123;-76
2023/09/30 11:05:20;;;;;;;11.68;3.10;;;;;;;;;;5053901;28;20087;-74
2023/09/30 11:07:50;;;;;;;12.98;2.88;;;;;;;;;;5060399;28;20040;-77
2023/09/30 11:10:20;;;;;;;10.73;2.77;;;;;;;;;;5075598;28;20040;-75
2023/09/30 11:12:58;;;;;;;13.35;3.13;;;;;;;;;;5058894;28;20049;-77
2023/09/30 11:15:25;;;;;;;9.85;2.72;;;;;;;;;;5046050;28;20410;-75
2023/09/30 11:17:54;;;;;;;15.35;2.75;;;;;;;;;;5044843;28;20144;-75
2023/09/30 11:20:20;;;;;;;8.35;2.35;;;;;;;;;;5037479;28;20064;-74
2023/09/30 11:22:47;;;;;;;12.32;2.95;;;;;;;;;;5060832;28;20049;-75
2023/09/30 11:25:19;;;;;;;11.77;2.70;;;;;;;;;;5054619;28;20186;-75
2023/09/30 11:27:46;;;;;;;16.70;2.95;;;;;;;;;;5061728;28;20116;-76
2023/09/30 11:30:13;;;;;;;10.52;2.95;;;;;;;;;;5045374;28;20541;-77
2023/09/30 11:32:39;;;;;;;11.73;2.83;;;;;;;;;;5053568;28;20503;-76
2023/09/30 11:35:25;;;;;;;8.93;2.75;;;;;;;;;;5065799;28;20049;-74
2023/09/30 11:37:52;;;;;;;10.15;2.75;;;;;;;;;;5062078;28;20438;-76
2023/09/30 11:40:20;;;;;;;11.52;2.80;;;;;;;;;;5068411;28;20056;-78
2023/09/30 11:43:12;;;;;;;12.27;4.35;;;;;;;;;;5053852;28;20499;-75
2023/09/30 11:45:38;;;;;;;9.95;2.72;;;;;;;;;;5053228;28;20530;-75
2023/09/30 11:48:16;;;;;;;8.57;2.20;;;;;;;;;;5062832;28;20082;-75
2023/09/30 11:50:46;;;;;;;10.70;2.40;;;;;;;;;;5056110;28;20044;-77
2023/09/30 11:53:21;;;;;;;8.80;2.42;;;;;;;;;;5039666;28;20053;-75
2023/09/30 11:55:47;;;;;;;12.50;3.13;;;;;;;;;;5035803;28;20472;-75
2023/09/30 11:58:18;;;;;;;11.95;3.03;;;;;;;;;;5052949;28;20056;-76
2023/09/30 12:00:44;;;;;;;;;;;;;;;;;;5063218;28;20052;-75
2023/09/30 12:03:10;;;;;;;13.05;3.05;;;;;;;;;;5069807;28;19999;-75
2023/09/30 12:05:36;;;;;;;13.88;3.00;;;;;;;;;;5054252;28;20506;-75
2023/09/30 12:08:02;;;;;;;10.88;2.33;;;;;;;;;;5053038;28;20403;-75
2023/09/30 12:10:30;;;;;;;11.45;2.65;;;;;;;;;;5060026;28;20051;-75
2023/09/30 12:12:56;;;;;;;11.30;2.42;;;;;;;;;;5068101;28;20044;-75
2023/09/30 12:15:23;;;;;;;8.43;2.33;;;;;;;;;;5073160;28;20418;-76
2023/09/30 12:17:49;;;;;;;9.88;2.35;;;;;;;;;;5064421;28;20048;-76
2023/09/30 12:20:17;;;;;;;11.05;2.25;;;;;;;;;;5043161;28;20533;-75
2023/09/30 12:22:43;;;;;;;8.10;2.13;;;;;;;;;;5046807;28;20048;-75
2023/09/30 12:25:09;;;;;;;10.98;2.30;;;;;;;;;;5061055;28;20348;-77
2023/09/30 12:27:36;;;;;;;12.15;2.42;;;;;;;;;;5052412;28;20045;-75
2023/09/30 12:30:04;;;;;;;11.15;2.35;;;;;;;;;;5053726;28;20060;-76
2023/09/30 12:32:30;;;;;;;9.90;2.60;;;;;;;;;;5054053;28;20057;-77
2023/09/30 12:34:56;;;;;;;9.48;2.20;;;;;;;;;;5057886;28;20061;-75
2023/09/30 12:37:22;;;;;;;8.00;2.03;;;;;;;;;;5050486;28;20124;-76
2023/09/30 12:39:48;;;;;;;10.10;2.40;;;;;;;;;;5052686;28;20488;-75
2023/09/30 12:42:15;;;;;;;12.65;3.05;;;;;;;;;;5060527;28;20041;-75
2023/09/30 12:44:41;;;;;;;8.48;2.17;;;;;;;;;;5052941;28;20049;-75
2023/09/30 12:47:07;;;;;;;10.18;2.30;;;;;;;;;;5053139;28;20053;-75
2023/09/30 12:49:34;;;;;;;7.75;2.13;;;;;;;;;;5045606;28;20343;-75
2023/09/30 12:52:01;;;;;;;9.27;2.20;;;;;;;;;;5058882;28;20056;-75
2023/09/30 12:54:27;;;;;;;9.75;2.38;;;;;;;;;;5032068;28;20045;-75
2023/09/30 12:56:53;;;;;;;7.38;2.40;;;;;;;;;;5048978;28;20514;-75
2023/09/30 12:59:19;;;;;;;9.10;1.77;;;;;;;;;;5051411;28;20049;-75
2023/09/30 13:01:47;;;;;;;7.90;1.60;;;;;;;;;;5051717;28;20049;-75
2023/09/30 13:04:13;;;;;;;9.00;2.28;;;;;;;;;;5052095;28;20481;-75
2023/09/30 13:06:40;;;;;;;6.90;2.08;;;;;;;;;;5056837;28;20041;-75
2023/09/30 13:09:08;;;;;;;9.80;2.10;;;;;;;;;;5034560;28;20067;-74
2023/09/30 13:11:34;;;;;;;9.50;2.03;;;;;;;;;;5046202;28;20172;-75
2023/09/30 13:14:00;;;;;;;10.00;2.70;;;;;;;;;;5037459;28;20147;-75
2023/09/30 13:16:26;;;;;;;6.68;1.80;;;;;;;;;;5052608;28;20209;-75
2023/09/30 13:18:52;;;;;;;8.38;1.90;;;;;;;;;;5049004;28;20552;-74
2023/09/30 13:21:19;;;;;;;5.95;1.85;;;;;;;;;;5037841;28;20124;-75
2023/09/30 13:23:45;;;;;;;9.18;1.90;;;;;;;;;;5052688;28;20053;-77
2023/09/30 13:26:11;;;;;;;7.13;1.80;;;;;;;;;;5052444;28;20555;-75
2023/09/30 13:28:37;;;;;;;9.25;2.45;;;;;;;;;;5052341;28;20084;-75
2023/09/30 13:31:03;;;;;;;7.90;2.17;;;;;;;;;;5041465;28;20116;-77
2023/09/30 13:33:30;;;;;;;8.57;2.08;;;;;;;;;;5051362;28;20071;-76
2023/09/30 13:35:56;;;;;;;8.05;1.95;;;;;;;;;;5045997;28;20041;-76
2023/09/30 13:38:22;;;;;;;9.00;2.35;;;;;;;;;;5063966;28;20143;-76
2023/09/30 13:40:48;;;;;;;8.88;1.98;;;;;;;;;;5058933;28;20049;-76
2023/09/30 13:43:14;;;;;;;10.07;2.03;;;;;;;;;;5031392;28;20056;-76
2023/09/30 13:45:40;;;;;;;7.47;2.60;;;;;;;;;;5046254;28;20387;-70
2023/09/30 13:48:06;;;;;;;10.27;2.30;;;;;;;;;;5051501;28;20040;-75
2023/09/30 13:50:32;;;;;;;9.57;2.67;;;;;;;;;;5051184;28;20048;-75
2023/09/30 13:53:00;;;;;;;7.95;2.30;;;;;;;;;;5049106;28;20037;-75
2023/09/30 13:55:26;;;;;;;8.48;2.17;;;;;;;;;;5046845;28;20106;-75
2023/09/30 13:57:53;;;;;;;8.38;2.10;;;;;;;;;;5047347;28;20411;-75
2023/09/30 14:00:19;;;;;;;8.75;2.50;;;;;;;;;;5048722;28;20411;-75
2023/09/30 14:02:45;;;;;;;10.35;2.30;;;;;;;;;;5041584;28;20487;-74
2023/09/30 14:05:13;;;;;;;6.95;2.10;;;;;;;;;;5051317;28;20530;-76
2023/09/30 14:07:39;;;;;;;11.73;2.67;;;;;;;;;;5052122;28;20053;-75
2023/09/30 14:10:06;;;;;;;8.82;2.30;;;;;;;;;;5052122;28;20057;-75
2023/09/30 14:12:33;;;;;;;7.65;2.05;;;;;;;;;;5051250;28;20051;-75
2023/09/30 14:14:59;;;;;;;7.82;2.22;;;;;;;;;;5051807;28;20098;-75
2023/09/30 14:17:25;;;;;;;8.05;2.10;;;;;;;;;;5048066;28;20092;-75
2023/09/30 14:19:51;;;;;;;9.45;2.40;;;;;;;;;;5052026;28;20053;-75
2023/09/30 14:22:18;;;;;;;8.43;2.22;;;;;;;;;;5052065;28;20128;-75
2023/09/30 14:24:45;;;;;;;10.43;2.22;;;;;;;;;;5051129;28;20156;-75
2023/09/30 14:27:14;;;;;;;10.77;2.50;;;;;;;;;;5051607;28;20053;-75
2023/09/30 14:29:40;;;;;;;9.15;2.50;;;;;;;;;;5049800;28;20450;-77
2023/09/30 14:32:06;;;;;;;10.60;2.45;;;;;;;;;;5047122;28;20045;-74
2023/09/30 14:34:33;;;;;;;8.75;2.40;;;;;;;;;;5046420;28;20078;-75